KFCH

Fresno Chandler Executive Airport

Fresno, California, USA
METAR KFCH 110215Z AUTO 00000KT 6SM BR OVC018 09/07 A3019 RMK A01
Observed Flight Rules
Dec-11 @ 02:15 UTC (19 minutes ago) Marginal Visual Flight Rules
Visibility Clouds Conditions
6 miles
  • Overcast at 1,800' AGL
  • Mist
Temperatures Readings
Current 9°C / 48°F
Dewpoint 7°C / 45°F
Humidity 87%
Altimeter 30.19" Hg
Pressure 1022 hPa
Elevation 85
METAR KFCH 110215Z AUTO 00000KT 6SM BR OVC018 09/07 A3019 RMK A01
Observed Flight Rules
Dec-11 @ 02:15 UTC
(19 minutes ago)
MVFR
Clouds
  • Overcast at 1,800' AGL
Conditions
  • Mist
Temperature Dewpoint
9°C / 48°F 7°C / 45°F
Humidity Altimeter Pressure
87% 30.19" Hg 1022 hPa